Time;durP1;ratioP1;P1;durP2;ratioP2;P2;SDS_P1;SDS_P2;PMS_P1;PMS_P2;Temp;Humidity;BMP_temperature;BMP_pressure;BME280_temperature;BME280_humidity;BME280_pressure;Samples;Min_cycle;Max_cycle;Signal;HPM_P1;HPM_P2
2022/09/07 00:00:50;;;;;;;10.65;7.400001;;;;;;;17.27;78.36914;95227.43;;;;
2022/09/07 00:01:52;;;;;;;10.65;7.400001;;;;;;;17.27;78.36914;95227.43;;;;
2022/09/07 00:02:52;;;;;;;10.65;7.400001;;;;;;;17.27;78.36914;95227.43;;;;
2022/09/07 00:03:53;;;;;;;10.65;7.400001;;;;;;;17.27;78.36914;95227.43;;;;
2022/09/07 00:04:54;;;;;;;10.65;7.400001;;;;;;;17.27;78.36914;95227.43;;;;
2022/09/07 00:05:55;;;;;;;10.65;7.400001;;;;;;;17.27;78.36914;95227.43;;;;
2022/09/07 00:06:56;;;;;;;10.65;7.400001;;;;;;;17.27;78.36914;95227.43;;;;
2022/09/07 00:07:56;;;;;;;10.65;7.400001;;;;;;;17.27;78.36914;95227.43;;;;
2022/09/07 00:08:58;;;;;;;10.65;7.400001;;;;;;;17.27;78.36914;95227.43;;;;
2022/09/07 00:09:58;;;;;;;10.65;7.400001;;;;;;;17.27;78.36914;95227.43;;;;
2022/09/07 00:10:59;;;;;;;10.65;7.400001;;;;;;;17.27;78.36914;95227.43;;;;
2022/09/07 00:12:01;;;;;;;10.65;7.400001;;;;;;;17.27;78.36914;95227.43;;;;
2022/09/07 00:13:02;;;;;;;10.65;7.400001;;;;;;;17.27;78.36914;95227.43;;;;
2022/09/07 00:14:04;;;;;;;10.65;7.400001;;;;;;;17.27;78.36914;95227.43;;;;
2022/09/07 00:15:08;;;;;;;10.65;7.400001;;;;;;;17.27;78.36914;95227.43;;;;
2022/09/07 00:16:09;;;;;;;10.65;7.400001;;;;;;;17.27;78.36914;95227.43;;;;
2022/09/07 00:17:12;;;;;;;10.65;7.400001;;;;;;;17.27;78.36914;95227.43;;;;
2022/09/07 00:18:12;;;;;;;10.65;7.400001;;;;;;;17.27;78.36914;95227.43;;;;
2022/09/07 00:19:13;;;;;;;10.65;7.400001;;;;;;;17.27;78.36914;95227.43;;;;
2022/09/07 00:20:14;;;;;;;10.65;7.400001;;;;;;;17.27;78.36914;95227.43;;;;
2022/09/07 00:21:14;;;;;;;10.65;7.400001;;;;;;;17.27;78.36914;95227.43;;;;
2022/09/07 00:22:16;;;;;;;10.65;7.400001;;;;;;;17.27;78.36914;95227.43;;;;
2022/09/07 00:23:17;;;;;;;10.65;7.400001;;;;;;;17.27;78.36914;95227.43;;;;
2022/09/07 00:24:17;;;;;;;10.35;6.550001;;;;;;;17.48;78.83105;95226.05;;;;
2022/09/07 00:25:18;;;;;;;10.35;6.550001;;;;;;;17.48;78.83105;95226.05;;;;
2022/09/07 00:26:18;;;;;;;10.35;6.550001;;;;;;;17.48;78.83105;95226.05;;;;
2022/09/07 00:27:20;;;;;;;10.35;6.550001;;;;;;;17.48;78.83105;95226.05;;;;
2022/09/07 00:28:21;;;;;;;10.35;6.550001;;;;;;;17.48;78.83105;95226.05;;;;
2022/09/07 00:29:21;;;;;;;10.35;6.550001;;;;;;;17.48;78.83105;95226.05;;;;
2022/09/07 00:30:22;;;;;;;10.35;6.550001;;;;;;;17.48;78.83105;95226.05;;;;
2022/09/07 00:31:23;;;;;;;10.35;6.550001;;;;;;;17.48;78.83105;95226.05;;;;
2022/09/07 00:32:24;;;;;;;10.35;6.550001;;;;;;;17.48;78.83105;95226.05;;;;
2022/09/07 00:33:24;;;;;;;10.35;6.550001;;;;;;;17.48;78.83105;95226.05;;;;
2022/09/07 00:34:25;;;;;;;11.95;6.45;;;;;;;17.62;78.97656;95217.85;;;;
2022/09/07 00:35:26;;;;;;;11.95;6.45;;;;;;;17.62;78.97656;95217.85;;;;
2022/09/07 00:36:26;;;;;;;11.95;6.45;;;;;;;17.62;78.97656;95217.85;;;;
2022/09/07 00:37:27;;;;;;;11.95;6.45;;;;;;;17.62;78.97656;95217.85;;;;
2022/09/07 00:38:28;;;;;;;11.95;6.45;;;;;;;17.62;78.97656;95217.85;;;;
2022/09/07 00:39:28;;;;;;;11.95;6.45;;;;;;;17.62;78.97656;95217.85;;;;
2022/09/07 00:40:29;;;;;;;11.95;6.45;;;;;;;17.62;78.97656;95217.85;;;;
2022/09/07 00:41:30;;;;;;;11.95;6.45;;;;;;;17.62;78.97656;95217.85;;;;
2022/09/07 00:42:30;;;;;;;11.95;6.45;;;;;;;17.62;78.97656;95217.85;;;;
2022/09/07 00:43:31;;;;;;;11.95;6.45;;;;;;;17.62;78.97656;95217.85;;;;
2022/09/07 00:44:34;;;;;;;11.95;6.45;;;;;;;17.62;78.97656;95217.85;;;;
2022/09/07 00:46:00;;;;;;;8.299998;5.9;;;;;;;17.63;79.06543;95233.37;;;;
2022/09/07 00:47:03;;;;;;;8.299998;5.9;;;;;;;17.63;79.06543;95233.37;;;;
2022/09/07 00:48:07;;;;;;;8.299998;5.9;;;;;;;17.63;79.06543;95233.37;;;;
2022/09/07 00:49:12;;;;;;;8.299998;5.9;;;;;;;17.63;79.06543;95233.37;;;;
2022/09/07 00:50:18;;;;;;;8.299998;5.9;;;;;;;17.63;79.06543;95233.37;;;;
2022/09/07 00:51:22;;;;;;;8.299998;5.9;;;;;;;17.63;79.06543;95233.37;;;;
2022/09/07 00:52:27;;;;;;;8.299998;5.9;;;;;;;17.63;79.06543;95233.37;;;;
2022/09/07 00:53:30;;;;;;;8.299998;5.9;;;;;;;17.63;79.06543;95233.37;;;;
2022/09/07 00:54:35;;;;;;;8.299998;5.9;;;;;;;17.63;79.06543;95233.37;;;;
2022/09/07 00:55:42;;;;;;;8.299998;5.9;;;;;;;17.63;79.06543;95233.37;;;;
2022/09/07 00:56:46;;;;;;;8.600001;5.299999;;;;;;;17.67;79.20313;95230.47;;;;
2022/09/07 00:57:48;;;;;;;8.600001;5.299999;;;;;;;17.67;79.20313;95230.47;;;;
2022/09/07 00:58:53;;;;;;;8.600001;5.299999;;;;;;;17.67;79.20313;95230.47;;;;
2022/09/07 00:59:54;;;;;;;8.600001;5.299999;;;;;;;17.67;79.20313;95230.47;;;;
2022/09/07 01:00:56;;;;;;;8.600001;5.299999;;;;;;;17.67;79.20313;95230.47;;;;
2022/09/07 01:01:57;;;;;;;8.600001;5.299999;;;;;;;17.67;79.20313;95230.47;;;;
2022/09/07 01:02:57;;;;;;;8.600001;5.299999;;;;;;;17.67;79.20313;95230.47;;;;
2022/09/07 01:03:59;;;;;;;8.600001;5.299999;;;;;;;17.67;79.20313;95230.47;;;;
2022/09/07 01:05:01;;;;;;;8.600001;5.299999;;;;;;;17.67;79.20313;95230.47;;;;
2022/09/07 01:06:06;;;;;;;8.600001;5.299999;;;;;;;17.67;79.20313;95230.47;;;;
2022/09/07 01:07:13;;;;;;;7.3;4.55;;;;;;;17.53;79.35254;95230.2;;;;
2022/09/07 01:08:13;;;;;;;7.3;4.55;;;;;;;17.53;79.35254;95230.2;;;;
2022/09/07 01:09:14;;;;;;;7.3;4.55;;;;;;;17.53;79.35254;95230.2;;;;
2022/09/07 01:10:18;;;;;;;7.3;4.55;;;;;;;17.53;79.35254;95230.2;;;;
2022/09/07 01:11:18;;;;;;;7.3;4.55;;;;;;;17.53;79.35254;95230.2;;;;
2022/09/07 01:12:21;;;;;;;7.3;4.55;;;;;;;17.53;79.35254;95230.2;;;;
2022/09/07 01:13:22;;;;;;;7.3;4.55;;;;;;;17.53;79.35254;95230.2;;;;
2022/09/07 01:14:22;;;;;;;7.3;4.55;;;;;;;17.53;79.35254;95230.2;;;;
2022/09/07 01:15:26;;;;;;;7.3;4.55;;;;;;;17.53;79.35254;95230.2;;;;
2022/09/07 01:16:41;;;;;;;7.3;4.55;;;;;;;17.53;79.35254;95230.2;;;;
2022/09/07 01:17:53;;;;;;;8.150001;5.149999;;;;;;;17.36;79.53125;95226.7;;;;
2022/09/07 01:19:00;;;;;;;8.150001;5.149999;;;;;;;17.36;79.53125;95226.7;;;;
2022/09/07 01:20:23;;;;;;;8.150001;5.149999;;;;;;;17.36;79.53125;95226.7;;;;
2022/09/07 01:21:34;;;;;;;8.150001;5.149999;;;;;;;17.36;79.53125;95226.7;;;;
2022/09/07 01:22:52;;;;;;;8.150001;5.149999;;;;;;;17.36;79.53125;95226.7;;;;
2022/09/07 01:24:23;;;;;;;8.150001;5.149999;;;;;;;17.36;79.53125;95226.7;;;;
2022/09/07 01:26:08;;;;;;;8.150001;5.149999;;;;;;;17.36;79.53125;95226.7;;;;
2022/09/07 01:27:29;;;;;;;8.150001;5.149999;;;;;;;17.36;79.53125;95226.7;;;;
2022/09/07 01:29:01;;;;;;;7.5;4.55;;;;;;;17.08;79.65527;95236.36;;;;
2022/09/07 01:30:07;;;;;;;7.5;4.55;;;;;;;17.08;79.65527;95236.36;;;;
2022/09/07 01:31:09;;;;;;;7.5;4.55;;;;;;;17.08;79.65527;95236.36;;;;
2022/09/07 01:32:19;;;;;;;7.5;4.55;;;;;;;17.08;79.65527;95236.36;;;;
2022/09/07 01:33:32;;;;;;;7.5;4.55;;;;;;;17.08;79.65527;95236.36;;;;
2022/09/07 01:34:43;;;;;;;7.5;4.55;;;;;;;17.08;79.65527;95236.36;;;;
2022/09/07 01:35:49;;;;;;;7.5;4.55;;;;;;;17.08;79.65527;95236.36;;;;
2022/09/07 01:37:00;;;;;;;7.5;4.55;;;;;;;17.08;79.65527;95236.36;;;;
2022/09/07 01:38:07;;;;;;;7.5;4.55;;;;;;;17.08;79.65527;95236.36;;;;
2022/09/07 01:39:17;;;;;;;5.400001;4.05;;;;;;;16.94;79.90137;95237.02;;;;
2022/09/07 01:40:22;;;;;;;5.400001;4.05;;;;;;;16.94;79.90137;95237.02;;;;
2022/09/07 01:41:32;;;;;;;5.400001;4.05;;;;;;;16.94;79.90137;95237.02;;;;
2022/09/07 01:42:42;;;;;;;5.400001;4.05;;;;;;;16.94;79.90137;95237.02;;;;
2022/09/07 01:43:53;;;;;;;5.400001;4.05;;;;;;;16.94;79.90137;95237.02;;;;
2022/09/07 01:44:59;;;;;;;5.400001;4.05;;;;;;;16.94;79.90137;95237.02;;;;
2022/09/07 01:46:01;;;;;;;5.400001;4.05;;;;;;;16.94;79.90137;95237.02;;;;
2022/09/07 01:47:06;;;;;;;5.400001;4.05;;;;;;;16.94;79.90137;95237.02;;;;
2022/09/07 01:48:12;;;;;;;5.400001;4.05;;;;;;;16.94;79.90137;95237.02;;;;
2022/09/07 01:49:16;;;;;;;5.400001;4.05;;;;;;;16.94;79.90137;95237.02;;;;
2022/09/07 01:50:21;;;;;;;5.400001;4.05;;;;;;;16.94;79.90137;95237.02;;;;
2022/09/07 01:51:27;;;;;;;5.400001;4.05;;;;;;;16.94;79.90137;95237.02;;;;
2022/09/07 01:52:32;;;;;;;5.400001;4.05;;;;;;;16.94;79.90137;95237.02;;;;
2022/09/07 01:53:39;;;;;;;5.400001;4.05;;;;;;;16.94;79.90137;95237.02;;;;
2022/09/07 01:54:45;;;;;;;5.400001;4.05;;;;;;;16.94;79.90137;95237.02;;;;
2022/09/07 01:55:51;;;;;;;5.400001;4.05;;;;;;;16.94;79.90137;95237.02;;;;
2022/09/07 01:56:56;;;;;;;5.400001;4.05;;;;;;;16.94;79.90137;95237.02;;;;
2022/09/07 01:58:01;;;;;;;5.400001;4.05;;;;;;;16.94;79.90137;95237.02;;;;
2022/09/07 01:59:09;;;;;;;5.400001;4.05;;;;;;;16.94;79.90137;95237.02;;;;
2022/09/07 02:00:17;;;;;;;5.650001;3.8;;;;;;;17.04;79.91992;95241.51;;;;
2022/09/07 02:01:18;;;;;;;5.650001;3.8;;;;;;;17.04;79.91992;95241.51;;;;
2022/09/07 02:02:23;;;;;;;5.650001;3.8;;;;;;;17.04;79.91992;95241.51;;;;
2022/09/07 02:03:28;;;;;;;5.650001;3.8;;;;;;;17.04;79.91992;95241.51;;;;
2022/09/07 02:04:34;;;;;;;5.650001;3.8;;;;;;;17.04;79.91992;95241.51;;;;
2022/09/07 02:05:39;;;;;;;5.650001;3.8;;;;;;;17.04;79.91992;95241.51;;;;
2022/09/07 02:06:48;;;;;;;5.650001;3.8;;;;;;;17.04;79.91992;95241.51;;;;
2022/09/07 02:07:52;;;;;;;5.650001;3.8;;;;;;;17.04;79.91992;95241.51;;;;
2022/09/07 02:08:58;;;;;;;5.650001;3.8;;;;;;;17.04;79.91992;95241.51;;;;
2022/09/07 02:10:03;;;;;;;5.650001;3.8;;;;;;;17.04;79.91992;95241.51;;;;
2022/09/07 02:11:10;;;;;;;3.8;3.45;;;;;;;17.09;79.92969;95241.04;;;;
2022/09/07 02:12:15;;;;;;;3.8;3.45;;;;;;;17.09;79.92969;95241.04;;;;
2022/09/07 02:13:21;;;;;;;3.8;3.45;;;;;;;17.09;79.92969;95241.04;;;;
2022/09/07 02:14:28;;;;;;;3.8;3.45;;;;;;;17.09;79.92969;95241.04;;;;
2022/09/07 02:15:33;;;;;;;3.8;3.45;;;;;;;17.09;79.92969;95241.04;;;;
2022/09/07 02:16:43;;;;;;;3.8;3.45;;;;;;;17.09;79.92969;95241.04;;;;
2022/09/07 02:17:50;;;;;;;3.8;3.45;;;;;;;17.09;79.92969;95241.04;;;;
2022/09/07 02:18:56;;;;;;;3.8;3.45;;;;;;;17.09;79.92969;95241.04;;;;
2022/09/07 02:20:03;;;;;;;3.8;3.45;;;;;;;17.09;79.92969;95241.04;;;;
2022/09/07 02:21:10;;;;;;;3.8;3.45;;;;;;;17.09;79.92969;95241.04;;;;
2022/09/07 02:22:14;;;;;;;8.549999;3.6;;;;;;;17.22;79.91895;95246.08;;;;
2022/09/07 02:23:20;;;;;;;8.549999;3.6;;;;;;;17.22;79.91895;95246.08;;;;
2022/09/07 02:24:25;;;;;;;8.549999;3.6;;;;;;;17.22;79.91895;95246.08;;;;
2022/09/07 02:25:31;;;;;;;8.549999;3.6;;;;;;;17.22;79.91895;95246.08;;;;
2022/09/07 02:26:36;;;;;;;8.549999;3.6;;;;;;;17.22;79.91895;95246.08;;;;
2022/09/07 02:27:40;;;;;;;8.549999;3.6;;;;;;;17.22;79.91895;95246.08;;;;
2022/09/07 02:28:46;;;;;;;8.549999;3.6;;;;;;;17.22;79.91895;95246.08;;;;
2022/09/07 02:29:47;;;;;;;8.549999;3.6;;;;;;;17.22;79.91895;95246.08;;;;
2022/09/07 02:30:47;;;;;;;8.549999;3.6;;;;;;;17.22;79.91895;95246.08;;;;
2022/09/07 02:31:48;;;;;;;8.549999;3.6;;;;;;;17.22;79.91895;95246.08;;;;
2022/09/07 02:32:49;;;;;;;6.45;3.5;;;;;;;17.14;79.85059;95226.92;;;;
2022/09/07 02:33:50;;;;;;;6.45;3.5;;;;;;;17.14;79.85059;95226.92;;;;
2022/09/07 02:34:51;;;;;;;6.45;3.5;;;;;;;17.14;79.85059;95226.92;;;;
2022/09/07 02:35:51;;;;;;;6.45;3.5;;;;;;;17.14;79.85059;95226.92;;;;
2022/09/07 02:36:52;;;;;;;6.45;3.5;;;;;;;17.14;79.85059;95226.92;;;;
2022/09/07 02:37:53;;;;;;;6.45;3.5;;;;;;;17.14;79.85059;95226.92;;;;
2022/09/07 02:38:54;;;;;;;6.45;3.5;;;;;;;17.14;79.85059;95226.92;;;;
2022/09/07 02:39:55;;;;;;;6.45;3.5;;;;;;;17.14;79.85059;95226.92;;;;
2022/09/07 02:40:56;;;;;;;6.45;3.5;;;;;;;17.14;79.85059;95226.92;;;;
2022/09/07 02:41:59;;;;;;;6.45;3.5;;;;;;;17.14;79.85059;95226.92;;;;
2022/09/07 02:42:59;;;;;;;6.45;3.5;;;;;;;17.14;79.85059;95226.92;;;;
2022/09/07 02:44:02;;;;;;;6.45;3.5;;;;;;;17.14;79.85059;95226.92;;;;
2022/09/07 02:45:07;;;;;;;6.45;3.5;;;;;;;17.14;79.85059;95226.92;;;;
2022/09/07 02:46:10;;;;;;;6.45;3.5;;;;;;;17.14;79.85059;95226.92;;;;
2022/09/07 02:47:25;;;;;;;6.45;3.5;;;;;;;17.14;79.85059;95226.92;;;;
2022/09/07 02:48:32;;;;;;;6.45;3.5;;;;;;;17.14;79.85059;95226.92;;;;
2022/09/07 02:49:44;;;;;;;6.45;3.5;;;;;;;17.14;79.85059;95226.92;;;;
2022/09/07 02:51:02;;;;;;;6.45;3.5;;;;;;;17.14;79.85059;95226.92;;;;
2022/09/07 02:52:14;;;;;;;6.45;3.5;;;;;;;17.14;79.85059;95226.92;;;;
2022/09/07 02:53:24;;;;;;;6.85;3.85;;;;;;;16.95;80.08984;95212.32;;;;
2022/09/07 02:54:41;;;;;;;6.85;3.85;;;;;;;16.95;80.08984;95212.32;;;;
2022/09/07 02:55:56;;;;;;;6.85;3.85;;;;;;;16.95;80.08984;95212.32;;;;
2022/09/07 02:57:06;;;;;;;6.85;3.85;;;;;;;16.95;80.08984;95212.32;;;;
2022/09/07 02:58:14;;;;;;;6.85;3.85;;;;;;;16.95;80.08984;95212.32;;;;
2022/09/07 02:59:32;;;;;;;6.85;3.85;;;;;;;16.95;80.08984;95212.32;;;;
2022/09/07 03:00:46;;;;;;;6.85;3.85;;;;;;;16.95;80.08984;95212.32;;;;
2022/09/07 03:01:53;;;;;;;6.85;3.85;;;;;;;16.95;80.08984;95212.32;;;;
2022/09/07 03:03:00;;;;;;;6.85;3.85;;;;;;;16.95;80.08984;95212.32;;;;
2022/09/07 03:04:13;;;;;;;5.15;3.8;;;;;;;16.93;80.22656;95211.36;;;;
2022/09/07 03:05:22;;;;;;;5.15;3.8;;;;;;;16.93;80.22656;95211.36;;;;
2022/09/07 03:06:28;;;;;;;5.15;3.8;;;;;;;16.93;80.22656;95211.36;;;;
2022/09/07 03:07:32;;;;;;;5.15;3.8;;;;;;;16.93;80.22656;95211.36;;;;
2022/09/07 03:08:37;;;;;;;5.15;3.8;;;;;;;16.93;80.22656;95211.36;;;;
2022/09/07 03:09:44;;;;;;;5.15;3.8;;;;;;;16.93;80.22656;95211.36;;;;
2022/09/07 03:10:47;;;;;;;5.15;3.8;;;;;;;16.93;80.22656;95211.36;;;;
2022/09/07 03:11:48;;;;;;;5.15;3.8;;;;;;;16.93;80.22656;95211.36;;;;
2022/09/07 03:12:49;;;;;;;5.15;3.8;;;;;;;16.93;80.22656;95211.36;;;;
2022/09/07 03:13:50;;;;;;;5.15;3.8;;;;;;;16.93;80.22656;95211.36;;;;
2022/09/07 03:14:51;;;;;;;6.649999;3.85;;;;;;;16.91;80.33398;95216.02;;;;
2022/09/07 03:15:51;;;;;;;6.649999;3.85;;;;;;;16.91;80.33398;95216.02;;;;
2022/09/07 03:16:52;;;;;;;6.649999;3.85;;;;;;;16.91;80.33398;95216.02;;;;
2022/09/07 03:17:55;;;;;;;6.649999;3.85;;;;;;;16.91;80.33398;95216.02;;;;
2022/09/07 03:18:56;;;;;;;6.649999;3.85;;;;;;;16.91;80.33398;95216.02;;;;
2022/09/07 03:19:56;;;;;;;6.649999;3.85;;;;;;;16.91;80.33398;95216.02;;;;
2022/09/07 03:20:56;;;;;;;6.649999;3.85;;;;;;;16.91;80.33398;95216.02;;;;
2022/09/07 03:21:57;;;;;;;6.649999;3.85;;;;;;;16.91;80.33398;95216.02;;;;
2022/09/07 03:22:58;;;;;;;6.649999;3.85;;;;;;;16.91;80.33398;95216.02;;;;
2022/09/07 03:23:58;;;;;;;6.649999;3.85;;;;;;;16.91;80.33398;95216.02;;;;
2022/09/07 03:24:58;;;;;;;6.649999;3.85;;;;;;;16.91;80.33398;95216.02;;;;
2022/09/07 03:25:59;;;;;;;7.05;3.95;;;;;;;17;80.35938;95217.19;;;;
2022/09/07 03:27:00;;;;;;;7.05;3.95;;;;;;;17;80.35938;95217.19;;;;
2022/09/07 03:28:00;;;;;;;7.05;3.95;;;;;;;17;80.35938;95217.19;;;;
2022/09/07 03:29:01;;;;;;;7.05;3.95;;;;;;;17;80.35938;95217.19;;;;
2022/09/07 03:30:02;;;;;;;7.05;3.95;;;;;;;17;80.35938;95217.19;;;;
2022/09/07 03:31:03;;;;;;;7.05;3.95;;;;;;;17;80.35938;95217.19;;;;
2022/09/07 03:32:04;;;;;;;7.05;3.95;;;;;;;17;80.35938;95217.19;;;;
2022/09/07 03:33:05;;;;;;;7.05;3.95;;;;;;;17;80.35938;95217.19;;;;
2022/09/07 03:34:06;;;;;;;7.05;3.95;;;;;;;17;80.35938;95217.19;;;;
2022/09/07 03:35:06;;;;;;;7.05;3.95;;;;;;;17;80.35938;95217.19;;;;
2022/09/07 03:36:08;;;;;;;7.05;3.95;;;;;;;17;80.35938;95217.19;;;;
2022/09/07 03:37:08;;;;;;;9.05;3.9;;;;;;;16.99;80.33594;95222.77;;;;
2022/09/07 03:38:09;;;;;;;9.05;3.9;;;;;;;16.99;80.33594;95222.77;;;;
2022/09/07 03:39:09;;;;;;;9.05;3.9;;;;;;;16.99;80.33594;95222.77;;;;
2022/09/07 03:40:11;;;;;;;9.05;3.9;;;;;;;16.99;80.33594;95222.77;;;;
2022/09/07 03:41:13;;;;;;;9.05;3.9;;;;;;;16.99;80.33594;95222.77;;;;
2022/09/07 03:42:13;;;;;;;9.05;3.9;;;;;;;16.99;80.33594;95222.77;;;;
2022/09/07 03:43:14;;;;;;;9.05;3.9;;;;;;;16.99;80.33594;95222.77;;;;
2022/09/07 03:44:14;;;;;;;9.05;3.9;;;;;;;16.99;80.33594;95222.77;;;;
2022/09/07 03:45:15;;;;;;;9.05;3.9;;;;;;;16.99;80.33594;95222.77;;;;
2022/09/07 03:46:18;;;;;;;9.05;3.9;;;;;;;16.99;80.33594;95222.77;;;;
2022/09/07 03:47:19;;;;;;;6.55;4.3;;;;;;;17;80.46875;95222.13;;;;
2022/09/07 03:48:19;;;;;;;6.55;4.3;;;;;;;17;80.46875;95222.13;;;;
2022/09/07 03:49:20;;;;;;;6.55;4.3;;;;;;;17;80.46875;95222.13;;;;
2022/09/07 03:50:20;;;;;;;6.55;4.3;;;;;;;17;80.46875;95222.13;;;;
2022/09/07 03:51:21;;;;;;;6.55;4.3;;;;;;;17;80.46875;95222.13;;;;
2022/09/07 03:52:21;;;;;;;6.55;4.3;;;;;;;17;80.46875;95222.13;;;;
2022/09/07 03:53:22;;;;;;;6.55;4.3;;;;;;;17;80.46875;95222.13;;;;
2022/09/07 03:54:23;;;;;;;6.55;4.3;;;;;;;17;80.46875;95222.13;;;;
2022/09/07 03:55:23;;;;;;;6.55;4.3;;;;;;;17;80.46875;95222.13;;;;
2022/09/07 03:56:24;;;;;;;6.55;4.3;;;;;;;17;80.46875;95222.13;;;;
2022/09/07 03:57:25;;;;;;;6.55;4.3;;;;;;;17;80.46875;95222.13;;;;
2022/09/07 03:58:25;;;;;;;5.899999;4.15;;;;;;;16.95;80.56934;95228.75;;;;
2022/09/07 03:59:28;;;;;;;5.899999;4.15;;;;;;;16.95;80.56934;95228.75;;;;
2022/09/07 04:00:29;;;;;;;5.899999;4.15;;;;;;;16.95;80.56934;95228.75;;;;
2022/09/07 04:01:29;;;;;;;5.899999;4.15;;;;;;;16.95;80.56934;95228.75;;;;
2022/09/07 04:02:30;;;;;;;5.899999;4.15;;;;;;;16.95;80.56934;95228.75;;;;
2022/09/07 04:03:30;;;;;;;5.899999;4.15;;;;;;;16.95;80.56934;95228.75;;;;
2022/09/07 04:04:31;;;;;;;5.899999;4.15;;;;;;;16.95;80.56934;95228.75;;;;
2022/09/07 04:05:32;;;;;;;5.899999;4.15;;;;;;;16.95;80.56934;95228.75;;;;
2022/09/07 04:06:32;;;;;;;5.899999;4.15;;;;;;;16.95;80.56934;95228.75;;;;
2022/09/07 04:07:33;;;;;;;5.899999;4.15;;;;;;;16.95;80.56934;95228.75;;;;
2022/09/07 04:08:33;;;;;;;5.899999;4.15;;;;;;;16.95;80.56934;95228.75;;;;
2022/09/07 04:09:35;;;;;;;5.899999;4.15;;;;;;;16.95;80.56934;95228.75;;;;
2022/09/07 04:10:36;;;;;;;5.899999;4.15;;;;;;;16.95;80.56934;95228.75;;;;
2022/09/07 04:11:36;;;;;;;5.899999;4.15;;;;;;;16.95;80.56934;95228.75;;;;
2022/09/07 04:12:37;;;;;;;5.899999;4.15;;;;;;;16.95;80.56934;95228.75;;;;
2022/09/07 04:13:38;;;;;;;5.899999;4.15;;;;;;;16.95;80.56934;95228.75;;;;
2022/09/07 04:14:38;;;;;;;5.899999;4.15;;;;;;;16.95;80.56934;95228.75;;;;
2022/09/07 04:15:39;;;;;;;5.899999;4.15;;;;;;;16.95;80.56934;95228.75;;;;
2022/09/07 04:16:39;;;;;;;5.899999;4.15;;;;;;;16.95;80.56934;95228.75;;;;
2022/09/07 04:17:40;;;;;;;5.899999;4.15;;;;;;;16.95;80.56934;95228.75;;;;
2022/09/07 04:18:40;;;;;;;5.899999;4.15;;;;;;;16.95;80.56934;95228.75;;;;
2022/09/07 04:19:41;;;;;;;5.899999;4.15;;;;;;;16.95;80.56934;95228.75;;;;
2022/09/07 04:20:42;;;;;;;5.899999;4.15;;;;;;;16.95;80.56934;95228.75;;;;
2022/09/07 04:21:46;;;;;;;5.899999;4.15;;;;;;;16.95;80.56934;95228.75;;;;
2022/09/07 04:22:46;;;;;;;5.899999;4.15;;;;;;;16.95;80.56934;95228.75;;;;
2022/09/07 04:23:47;;;;;;;5.899999;4.15;;;;;;;16.95;80.56934;95228.75;;;;
2022/09/07 04:24:48;;;;;;;5.899999;4.15;;;;;;;16.95;80.56934;95228.75;;;;
2022/09/07 04:25:49;;;;;;;5.899999;4.15;;;;;;;16.95;80.56934;95228.75;;;;
2022/09/07 04:26:51;;;;;;;5.899999;4.15;;;;;;;16.95;80.56934;95228.75;;;;
2022/09/07 04:27:51;;;;;;;5.899999;4.15;;;;;;;16.95;80.56934;95228.75;;;;
2022/09/07 04:28:53;;;;;;;5.899999;4.15;;;;;;;16.95;80.56934;95228.75;;;;
2022/09/07 04:29:53;;;;;;;6.25;4.55;;;;;;;17.03;80.84473;95249.26;;;;
2022/09/07 04:30:54;;;;;;;6.25;4.55;;;;;;;17.03;80.84473;95249.26;;;;
2022/09/07 04:31:58;;;;;;;6.25;4.55;;;;;;;17.03;80.84473;95249.26;;;;
2022/09/07 04:32:58;;;;;;;6.25;4.55;;;;;;;17.03;80.84473;95249.26;;;;
2022/09/07 04:33:59;;;;;;;6.25;4.55;;;;;;;17.03;80.84473;95249.26;;;;
2022/09/07 04:35:00;;;;;;;6.25;4.55;;;;;;;17.03;80.84473;95249.26;;;;
2022/09/07 04:36:00;;;;;;;6.25;4.55;;;;;;;17.03;80.84473;95249.26;;;;
2022/09/07 04:37:02;;;;;;;6.25;4.55;;;;;;;17.03;80.84473;95249.26;;;;
2022/09/07 04:38:02;;;;;;;6.25;4.55;;;;;;;17.03;80.84473;95249.26;;;;
2022/09/07 04:39:03;;;;;;;6.25;4.55;;;;;;;17.03;80.84473;95249.26;;;;
2022/09/07 04:40:04;;;;;;;6.25;4.55;;;;;;;17.03;80.84473;95249.26;;;;
2022/09/07 04:41:07;;;;;;;7.1;4.6;;;;;;;17.04;80.88086;95250.34;;;;
2022/09/07 04:42:09;;;;;;;7.1;4.6;;;;;;;17.04;80.88086;95250.34;;;;
2022/09/07 04:43:11;;;;;;;7.1;4.6;;;;;;;17.04;80.88086;95250.34;;;;
2022/09/07 04:44:12;;;;;;;7.1;4.6;;;;;;;17.04;80.88086;95250.34;;;;
2022/09/07 04:45:12;;;;;;;7.1;4.6;;;;;;;17.04;80.88086;95250.34;;;;
2022/09/07 04:46:13;;;;;;;7.1;4.6;;;;;;;17.04;80.88086;95250.34;;;;
2022/09/07 04:47:17;;;;;;;7.1;4.6;;;;;;;17.04;80.88086;95250.34;;;;
2022/09/07 04:48:18;;;;;;;7.1;4.6;;;;;;;17.04;80.88086;95250.34;;;;
2022/09/07 04:49:19;;;;;;;7.1;4.6;;;;;;;17.04;80.88086;95250.34;;;;
2022/09/07 04:50:20;;;;;;;7.1;4.6;;;;;;;17.04;80.88086;95250.34;;;;
2022/09/07 04:51:23;;;;;;;7.7;4.55;;;;;;;17.16;80.99902;95240.42;;;;
2022/09/07 04:52:25;;;;;;;7.7;4.55;;;;;;;17.16;80.99902;95240.42;;;;
2022/09/07 04:53:26;;;;;;;7.7;4.55;;;;;;;17.16;80.99902;95240.42;;;;
2022/09/07 04:54:26;;;;;;;7.7;4.55;;;;;;;17.16;80.99902;95240.42;;;;
2022/09/07 04:55:27;;;;;;;7.7;4.55;;;;;;;17.16;80.99902;95240.42;;;;
2022/09/07 04:56:27;;;;;;;7.7;4.55;;;;;;;17.16;80.99902;95240.42;;;;
2022/09/07 04:57:28;;;;;;;7.7;4.55;;;;;;;17.16;80.99902;95240.42;;;;
2022/09/07 04:58:29;;;;;;;7.7;4.55;;;;;;;17.16;80.99902;95240.42;;;;
2022/09/07 04:59:30;;;;;;;7.7;4.55;;;;;;;17.16;80.99902;95240.42;;;;
2022/09/07 05:00:30;;;;;;;7.7;4.55;;;;;;;17.16;80.99902;95240.42;;;;
2022/09/07 05:01:31;;;;;;;7.7;4.55;;;;;;;17.16;80.99902;95240.42;;;;
2022/09/07 05:02:32;;;;;;;6.8;4.55;;;;;;;17.2;80.99707;95246.34;;;;
2022/09/07 05:03:32;;;;;;;6.8;4.55;;;;;;;17.2;80.99707;95246.34;;;;
2022/09/07 05:04:35;;;;;;;6.8;4.55;;;;;;;17.2;80.99707;95246.34;;;;
2022/09/07 05:05:37;;;;;;;6.8;4.55;;;;;;;17.2;80.99707;95246.34;;;;
2022/09/07 05:06:37;;;;;;;6.8;4.55;;;;;;;17.2;80.99707;95246.34;;;;
2022/09/07 05:07:38;;;;;;;6.8;4.55;;;;;;;17.2;80.99707;95246.34;;;;
2022/09/07 05:08:38;;;;;;;6.8;4.55;;;;;;;17.2;80.99707;95246.34;;;;
2022/09/07 05:09:41;;;;;;;6.8;4.55;;;;;;;17.2;80.99707;95246.34;;;;
2022/09/07 05:10:41;;;;;;;6.8;4.55;;;;;;;17.2;80.99707;95246.34;;;;
2022/09/07 05:11:50;;;;;;;6.8;4.55;;;;;;;17.2;80.99707;95246.34;;;;
2022/09/07 05:12:51;;;;;;;8.050001;4.600001;;;;;;;17.32;80.97363;95251.53;;;;
2022/09/07 05:13:52;;;;;;;8.050001;4.600001;;;;;;;17.32;80.97363;95251.53;;;;
2022/09/07 05:14:54;;;;;;;8.050001;4.600001;;;;;;;17.32;80.97363;95251.53;;;;
2022/09/07 05:15:54;;;;;;;8.050001;4.600001;;;;;;;17.32;80.97363;95251.53;;;;
2022/09/07 05:16:55;;;;;;;8.050001;4.600001;;;;;;;17.32;80.97363;95251.53;;;;
2022/09/07 05:17:55;;;;;;;8.050001;4.600001;;;;;;;17.32;80.97363;95251.53;;;;
2022/09/07 05:18:56;;;;;;;8.050001;4.600001;;;;;;;17.32;80.97363;95251.53;;;;
2022/09/07 05:19:59;;;;;;;8.050001;4.600001;;;;;;;17.32;80.97363;95251.53;;;;
2022/09/07 05:21:00;;;;;;;8.050001;4.600001;;;;;;;17.32;80.97363;95251.53;;;;
2022/09/07 05:22:07;;;;;;;8.050001;4.600001;;;;;;;17.32;80.97363;95251.53;;;;
2022/09/07 05:23:07;;;;;;;8.050001;4.600001;;;;;;;17.32;80.97363;95251.53;;;;
2022/09/07 05:24:08;;;;;;;4.400001;3.9;;;;;;;17.43;80.92871;95260.3;;;;
2022/09/07 05:25:08;;;;;;;4.400001;3.9;;;;;;;17.43;80.92871;95260.3;;;;
2022/09/07 05:26:09;;;;;;;4.400001;3.9;;;;;;;17.43;80.92871;95260.3;;;;
2022/09/07 05:27:10;;;;;;;4.400001;3.9;;;;;;;17.43;80.92871;95260.3;;;;
2022/09/07 05:28:11;;;;;;;4.400001;3.9;;;;;;;17.43;80.92871;95260.3;;;;
2022/09/07 05:29:12;;;;;;;4.400001;3.9;;;;;;;17.43;80.92871;95260.3;;;;
2022/09/07 05:30:13;;;;;;;4.400001;3.9;;;;;;;17.43;80.92871;95260.3;;;;
2022/09/07 05:31:14;;;;;;;4.400001;3.9;;;;;;;17.43;80.92871;95260.3;;;;
2022/09/07 05:32:17;;;;;;;4.400001;3.9;;;;;;;17.43;80.92871;95260.3;;;;
2022/09/07 05:33:18;;;;;;;4.400001;3.9;;;;;;;17.43;80.92871;95260.3;;;;
2022/09/07 05:34:18;;;;;;;5.750001;3.4;;;;;;;17.74;80.77734;95257.25;;;;
2022/09/07 05:35:19;;;;;;;5.750001;3.4;;;;;;;17.74;80.77734;95257.25;;;;
2022/09/07 05:36:20;;;;;;;5.750001;3.4;;;;;;;17.74;80.77734;95257.25;;;;
2022/09/07 05:37:21;;;;;;;5.750001;3.4;;;;;;;17.74;80.77734;95257.25;;;;
2022/09/07 05:38:21;;;;;;;5.750001;3.4;;;;;;;17.74;80.77734;95257.25;;;;
2022/09/07 05:39:22;;;;;;;5.750001;3.4;;;;;;;17.74;80.77734;95257.25;;;;
2022/09/07 05:40:22;;;;;;;5.750001;3.4;;;;;;;17.74;80.77734;95257.25;;;;
2022/09/07 05:41:23;;;;;;;5.750001;3.4;;;;;;;17.74;80.77734;95257.25;;;;
2022/09/07 05:42:25;;;;;;;5.750001;3.4;;;;;;;17.74;80.77734;95257.25;;;;
2022/09/07 05:43:26;;;;;;;5.750001;3.4;;;;;;;17.74;80.77734;95257.25;;;;
2022/09/07 05:44:26;;;;;;;5.750001;3.4;;;;;;;17.74;80.77734;95257.25;;;;
2022/09/07 05:45:27;;;;;;;5.65;3.1;;;;;;;18.19;80.07031;95278.69;;;;
2022/09/07 05:46:27;;;;;;;5.65;3.1;;;;;;;18.19;80.07031;95278.69;;;;
2022/09/07 05:47:28;;;;;;;5.65;3.1;;;;;;;18.19;80.07031;95278.69;;;;
2022/09/07 05:48:28;;;;;;;5.65;3.1;;;;;;;18.19;80.07031;95278.69;;;;
2022/09/07 05:49:29;;;;;;;5.65;3.1;;;;;;;18.19;80.07031;95278.69;;;;